sensor_id;sensor_type;location;lat;lon;timestamp;temperature;humidity
27858;DHT22;16852;51.446;6.528;2022-12-24T00:01:10;11.40;99.90
27858;DHT22;16852;51.446;6.528;2022-12-24T00:03:11;11.40;99.90
27858;DHT22;16852;51.446;6.528;2022-12-24T00:05:12;11.40;99.90
27858;DHT22;16852;51.446;6.528;2022-12-24T00:07:12;11.40;99.90
27858;DHT22;16852;51.446;6.528;2022-12-24T00:09:13;11.40;99.90
27858;DHT22;16852;51.446;6.528;2022-12-24T00:11:13;11.40;99.90
27858;DHT22;16852;51.446;6.528;2022-12-24T00:13:14;11.40;99.90
27858;DHT22;16852;51.446;6.528;2022-12-24T00:15:15;11.40;99.90
27858;DHT22;16852;51.446;6.528;2022-12-24T00:17:15;11.30;99.90
27858;DHT22;16852;51.446;6.528;2022-12-24T00:19:16;11.30;99.90
27858;DHT22;16852;51.446;6.528;2022-12-24T00:21:16;11.30;99.90
27858;DHT22;16852;51.446;6.528;2022-12-24T00:23:17;11.30;99.90
27858;DHT22;16852;51.446;6.528;2022-12-24T00:25:18;11.30;99.90
27858;DHT22;16852;51.446;6.528;2022-12-24T00:27:19;11.30;99.90
27858;DHT22;16852;51.446;6.528;2022-12-24T00:29:19;11.30;99.90
27858;DHT22;16852;51.446;6.528;2022-12-24T00:31:20;11.30;99.90
27858;DHT22;16852;51.446;6.528;2022-12-24T00:33:20;11.20;99.90
27858;DHT22;16852;51.446;6.528;2022-12-24T00:35:21;11.20;99.90
27858;DHT22;16852;51.446;6.528;2022-12-24T00:37:22;11.20;99.90
27858;DHT22;16852;51.446;6.528;2022-12-24T00:39:23;11.10;99.90
27858;DHT22;16852;51.446;6.528;2022-12-24T00:41:23;11.10;99.90
27858;DHT22;16852;51.446;6.528;2022-12-24T00:43:24;11.10;99.90
27858;DHT22;16852;51.446;6.528;2022-12-24T00:45:24;11.10;99.90
27858;DHT22;16852;51.446;6.528;2022-12-24T00:47:27;11.00;99.90
27858;DHT22;16852;51.446;6.528;2022-12-24T00:49:27;11.00;99.90
27858;DHT22;16852;51.446;6.528;2022-12-24T00:51:28;11.00;99.90
27858;DHT22;16852;51.446;6.528;2022-12-24T00:53:28;11.00;99.90
27858;DHT22;16852;51.446;6.528;2022-12-24T00:55:29;11.00;99.90
27858;DHT22;16852;51.446;6.528;2022-12-24T00:57:30;11.00;99.90
27858;DHT22;16852;51.446;6.528;2022-12-24T00:59:30;11.00;99.90
27858;DHT22;16852;51.446;6.528;2022-12-24T01:01:31;11.00;99.90
27858;DHT22;16852;51.446;6.528;2022-12-24T01:03:31;11.00;99.90
27858;DHT22;16852;51.446;6.528;2022-12-24T01:05:35;11.00;99.90
27858;DHT22;16852;51.446;6.528;2022-12-24T01:07:36;11.00;99.90
27858;DHT22;16852;51.446;6.528;2022-12-24T01:09:37;10.90;99.90
27858;DHT22;16852;51.446;6.528;2022-12-24T01:11:38;10.90;99.90
27858;DHT22;16852;51.446;6.528;2022-12-24T01:13:39;10.90;99.90
27858;DHT22;16852;51.446;6.528;2022-12-24T01:15:39;10.90;99.90
27858;DHT22;16852;51.446;6.528;2022-12-24T01:17:40;10.80;99.90
27858;DHT22;16852;51.446;6.528;2022-12-24T01:19:41;10.80;99.90
27858;DHT22;16852;51.446;6.528;2022-12-24T01:21:41;10.90;99.90
27858;DHT22;16852;51.446;6.528;2022-12-24T01:23:42;10.80;99.90
27858;DHT22;16852;51.446;6.528;2022-12-24T01:25:43;10.80;99.90
27858;DHT22;16852;51.446;6.528;2022-12-24T01:27:44;10.80;99.90
27858;DHT22;16852;51.446;6.528;2022-12-24T01:29:44;10.80;99.90
27858;DHT22;16852;51.446;6.528;2022-12-24T01:31:45;10.80;99.90
27858;DHT22;16852;51.446;6.528;2022-12-24T01:33:47;10.80;99.90
27858;DHT22;16852;51.446;6.528;2022-12-24T01:35:48;10.80;99.90
27858;DHT22;16852;51.446;6.528;2022-12-24T01:37:49;10.80;99.90
27858;DHT22;16852;51.446;6.528;2022-12-24T01:39:49;10.70;99.90
27858;DHT22;16852;51.446;6.528;2022-12-24T01:41:50;10.70;99.90
27858;DHT22;16852;51.446;6.528;2022-12-24T01:44:24;10.70;99.90
27858;DHT22;16852;51.446;6.528;2022-12-24T01:46:28;10.70;99.90
27858;DHT22;16852;51.446;6.528;2022-12-24T01:48:36;10.70;99.90
27858;DHT22;16852;51.446;6.528;2022-12-24T01:50:38;10.70;99.90
27858;DHT22;16852;51.446;6.528;2022-12-24T01:52:38;10.70;99.90
27858;DHT22;16852;51.446;6.528;2022-12-24T01:54:44;10.70;99.90
27858;DHT22;16852;51.446;6.528;2022-12-24T01:56:51;10.70;99.90
27858;DHT22;16852;51.446;6.528;2022-12-24T01:58:58;10.70;99.90
27858;DHT22;16852;51.446;6.528;2022-12-24T02:00:59;10.70;99.90
27858;DHT22;16852;51.446;6.528;2022-12-24T02:03:00;10.70;99.90
27858;DHT22;16852;51.446;6.528;2022-12-24T02:05:04;10.70;99.90
27858;DHT22;16852;51.446;6.528;2022-12-24T02:07:05;10.70;99.90
27858;DHT22;16852;51.446;6.528;2022-12-24T02:09:06;10.70;99.90
27858;DHT22;16852;51.446;6.528;2022-12-24T02:11:15;10.70;99.90
27858;DHT22;16852;51.446;6.528;2022-12-24T02:13:18;10.60;99.90
27858;DHT22;16852;51.446;6.528;2022-12-24T02:15:20;10.60;99.90
27858;DHT22;16852;51.446;6.528;2022-12-24T02:22:29;10.60;99.90
27858;DHT22;16852;51.446;6.528;2022-12-24T02:32:01;10.60;99.90
27858;DHT22;16852;51.446;6.528;2022-12-24T02:34:06;10.60;99.90
27858;DHT22;16852;51.446;6.528;2022-12-24T02:36:22;10.60;99.90
27858;DHT22;16852;51.446;6.528;2022-12-24T02:38:29;10.50;99.90
27858;DHT22;16852;51.446;6.528;2022-12-24T02:40:39;10.60;99.90
27858;DHT22;16852;51.446;6.528;2022-12-24T02:42:43;10.50;99.90
27858;DHT22;16852;51.446;6.528;2022-12-24T02:44:52;10.60;99.90
27858;DHT22;16852;51.446;6.528;2022-12-24T02:46:56;10.60;99.90
27858;DHT22;16852;51.446;6.528;2022-12-24T02:48:58;10.60;99.90
27858;DHT22;16852;51.446;6.528;2022-12-24T02:51:05;10.60;99.90
27858;DHT22;16852;51.446;6.528;2022-12-24T02:53:09;10.50;99.90
27858;DHT22;16852;51.446;6.528;2022-12-24T02:57:39;10.50;99.90
27858;DHT22;16852;51.446;6.528;2022-12-24T02:59:46;10.50;99.90
27858;DHT22;16852;51.446;6.528;2022-12-24T03:04:27;10.40;99.90
27858;DHT22;16852;51.446;6.528;2022-12-24T03:07:05;10.50;99.90
27858;DHT22;16852;51.446;6.528;2022-12-24T03:09:19;10.40;99.90
27858;DHT22;16852;51.446;6.528;2022-12-24T03:11:24;10.50;99.90
27858;DHT22;16852;51.446;6.528;2022-12-24T03:13:26;10.50;99.90
27858;DHT22;16852;51.446;6.528;2022-12-24T03:15:28;10.40;99.90
27858;DHT22;16852;51.446;6.528;2022-12-24T03:17:34;10.40;99.90
27858;DHT22;16852;51.446;6.528;2022-12-24T03:19:37;10.50;99.90
27858;DHT22;16852;51.446;6.528;2022-12-24T03:21:39;10.50;99.90
27858;DHT22;16852;51.446;6.528;2022-12-24T03:23:41;10.40;99.90
27858;DHT22;16852;51.446;6.528;2022-12-24T03:25:43;10.50;99.90
27858;DHT22;16852;51.446;6.528;2022-12-24T03:27:44;10.50;99.90
27858;DHT22;16852;51.446;6.528;2022-12-24T03:29:45;10.50;99.90
27858;DHT22;16852;51.446;6.528;2022-12-24T03:31:49;10.50;99.90
27858;DHT22;16852;51.446;6.528;2022-12-24T03:33:50;10.50;99.90
27858;DHT22;16852;51.446;6.528;2022-12-24T03:35:51;10.50;99.90
27858;DHT22;16852;51.446;6.528;2022-12-24T03:37:51;10.50;99.90
27858;DHT22;16852;51.446;6.528;2022-12-24T03:39:52;10.50;99.90
27858;DHT22;16852;51.446;6.528;2022-12-24T03:41:53;10.60;99.90
27858;DHT22;16852;51.446;6.528;2022-12-24T03:43:53;10.60;99.90
27858;DHT22;16852;51.446;6.528;2022-12-24T03:45:54;10.60;99.90
27858;DHT22;16852;51.446;6.528;2022-12-24T03:47:54;10.60;99.90
27858;DHT22;16852;51.446;6.528;2022-12-24T03:49:55;10.60;99.90
27858;DHT22;16852;51.446;6.528;2022-12-24T03:51:56;10.60;99.90
27858;DHT22;16852;51.446;6.528;2022-12-24T03:53:56;10.60;99.90
27858;DHT22;16852;51.446;6.528;2022-12-24T03:55:57;10.70;99.90
27858;DHT22;16852;51.446;6.528;2022-12-24T03:57:58;10.70;99.90
27858;DHT22;16852;51.446;6.528;2022-12-24T03:59:58;10.70;99.90
27858;DHT22;16852;51.446;6.528;2022-12-24T04:01:59;10.70;99.90
27858;DHT22;16852;51.446;6.528;2022-12-24T04:04:00;10.70;99.90
27858;DHT22;16852;51.446;6.528;2022-12-24T04:06:08;10.70;99.90
27858;DHT22;16852;51.446;6.528;2022-12-24T04:08:09;10.70;99.90
27858;DHT22;16852;51.446;6.528;2022-12-24T04:10:11;10.80;99.90
27858;DHT22;16852;51.446;6.528;2022-12-24T04:12:11;10.80;99.90
27858;DHT22;16852;51.446;6.528;2022-12-24T04:14:12;10.80;99.90
27858;DHT22;16852;51.446;6.528;2022-12-24T04:16:14;10.80;99.90
27858;DHT22;16852;51.446;6.528;2022-12-24T04:18:15;10.80;99.90
27858;DHT22;16852;51.446;6.528;2022-12-24T04:20:16;10.80;99.90
27858;DHT22;16852;51.446;6.528;2022-12-24T04:22:16;10.80;99.90
27858;DHT22;16852;51.446;6.528;2022-12-24T04:24:17;10.80;99.90
27858;DHT22;16852;51.446;6.528;2022-12-24T04:26:18;10.80;99.90
27858;DHT22;16852;51.446;6.528;2022-12-24T04:28:18;10.80;99.90
27858;DHT22;16852;51.446;6.528;2022-12-24T04:30:19;10.80;99.90
27858;DHT22;16852;51.446;6.528;2022-12-24T04:32:19;10.80;99.90
27858;DHT22;16852;51.446;6.528;2022-12-24T04:34:20;10.80;99.90
27858;DHT22;16852;51.446;6.528;2022-12-24T04:36:21;10.80;99.90
27858;DHT22;16852;51.446;6.528;2022-12-24T04:38:21;10.80;99.90
27858;DHT22;16852;51.446;6.528;2022-12-24T04:40:22;10.90;99.90
27858;DHT22;16852;51.446;6.528;2022-12-24T04:42:23;10.80;99.90
27858;DHT22;16852;51.446;6.528;2022-12-24T04:44:23;10.80;99.90
27858;DHT22;16852;51.446;6.528;2022-12-24T04:46:26;10.90;99.90
27858;DHT22;16852;51.446;6.528;2022-12-24T04:48:29;10.80;99.90
27858;DHT22;16852;51.446;6.528;2022-12-24T04:50:30;10.90;99.90
27858;DHT22;16852;51.446;6.528;2022-12-24T04:52:30;10.90;99.90
27858;DHT22;16852;51.446;6.528;2022-12-24T04:54:31;10.90;99.90
27858;DHT22;16852;51.446;6.528;2022-12-24T04:56:31;10.90;99.90
27858;DHT22;16852;51.446;6.528;2022-12-24T04:58:32;10.90;99.90
27858;DHT22;16852;51.446;6.528;2022-12-24T05:00:33;10.90;99.90
27858;DHT22;16852;51.446;6.528;2022-12-24T05:02:33;10.90;99.90
27858;DHT22;16852;51.446;6.528;2022-12-24T05:04:34;10.90;99.90
27858;DHT22;16852;51.446;6.528;2022-12-24T05:06:35;10.90;99.90
27858;DHT22;16852;51.446;6.528;2022-12-24T05:08:36;10.90;99.90
27858;DHT22;16852;51.446;6.528;2022-12-24T05:10:37;10.90;99.90
27858;DHT22;16852;51.446;6.528;2022-12-24T05:12:38;10.90;99.90
27858;DHT22;16852;51.446;6.528;2022-12-24T05:14:39;10.90;99.90
27858;DHT22;16852;51.446;6.528;2022-12-24T05:16:39;10.90;99.90
27858;DHT22;16852;51.446;6.528;2022-12-24T05:18:40;10.90;99.90
27858;DHT22;16852;51.446;6.528;2022-12-24T05:20:41;10.90;99.90
27858;DHT22;16852;51.446;6.528;2022-12-24T05:22:42;10.90;99.90
27858;DHT22;16852;51.446;6.528;2022-12-24T05:25:01;10.90;99.90
27858;DHT22;16852;51.446;6.528;2022-12-24T05:27:20;10.90;99.90
27858;DHT22;16852;51.446;6.528;2022-12-24T05:29:21;10.90;99.90
27858;DHT22;16852;51.446;6.528;2022-12-24T05:31:23;10.90;99.90
27858;DHT22;16852;51.446;6.528;2022-12-24T05:33:24;10.90;99.90
27858;DHT22;16852;51.446;6.528;2022-12-24T05:35:24;10.90;99.90
27858;DHT22;16852;51.446;6.528;2022-12-24T05:37:25;10.90;99.90
27858;DHT22;16852;51.446;6.528;2022-12-24T05:39:25;10.90;99.90
27858;DHT22;16852;51.446;6.528;2022-12-24T05:41:26;10.90;99.90
27858;DHT22;16852;51.446;6.528;2022-12-24T05:43:27;10.90;99.90
27858;DHT22;16852;51.446;6.528;2022-12-24T05:45:27;10.90;99.90
27858;DHT22;16852;51.446;6.528;2022-12-24T05:47:28;10.90;99.90
27858;DHT22;16852;51.446;6.528;2022-12-24T05:49:29;10.90;99.90
27858;DHT22;16852;51.446;6.528;2022-12-24T05:51:30;10.90;99.90
27858;DHT22;16852;51.446;6.528;2022-12-24T05:53:31;10.90;99.90
27858;DHT22;16852;51.446;6.528;2022-12-24T05:55:32;10.90;99.90
27858;DHT22;16852;51.446;6.528;2022-12-24T05:57:33;10.90;99.90
27858;DHT22;16852;51.446;6.528;2022-12-24T05:59:33;10.90;99.90
27858;DHT22;16852;51.446;6.528;2022-12-24T06:01:34;10.90;99.90
27858;DHT22;16852;51.446;6.528;2022-12-24T06:03:35;10.90;99.90
27858;DHT22;16852;51.446;6.528;2022-12-24T06:05:36;10.90;99.90
27858;DHT22;16852;51.446;6.528;2022-12-24T06:07:37;10.90;99.90
27858;DHT22;16852;51.446;6.528;2022-12-24T06:09:37;10.90;99.90
27858;DHT22;16852;51.446;6.528;2022-12-24T06:11:38;10.80;99.90
27858;DHT22;16852;51.446;6.528;2022-12-24T06:13:39;10.90;99.90
27858;DHT22;16852;51.446;6.528;2022-12-24T06:15:40;10.90;99.90
27858;DHT22;16852;51.446;6.528;2022-12-24T06:17:41;10.90;99.90
27858;DHT22;16852;51.446;6.528;2022-12-24T06:19:41;10.90;99.90
27858;DHT22;16852;51.446;6.528;2022-12-24T06:21:42;10.80;99.90
27858;DHT22;16852;51.446;6.528;2022-12-24T06:23:43;10.80;99.90
27858;DHT22;16852;51.446;6.528;2022-12-24T06:25:45;10.80;99.90
27858;DHT22;16852;51.446;6.528;2022-12-24T06:27:45;10.80;99.90
27858;DHT22;16852;51.446;6.528;2022-12-24T06:29:46;10.80;99.90
27858;DHT22;16852;51.446;6.528;2022-12-24T06:31:46;10.80;99.90
27858;DHT22;16852;51.446;6.528;2022-12-24T06:33:47;10.80;99.90
27858;DHT22;16852;51.446;6.528;2022-12-24T06:35:48;10.80;99.90
27858;DHT22;16852;51.446;6.528;2022-12-24T06:37:48;10.80;99.90
27858;DHT22;16852;51.446;6.528;2022-12-24T06:39:49;10.80;99.90
27858;DHT22;16852;51.446;6.528;2022-12-24T06:41:49;10.80;99.90
27858;DHT22;16852;51.446;6.528;2022-12-24T06:43:51;10.80;99.90
27858;DHT22;16852;51.446;6.528;2022-12-24T06:45:52;10.80;99.90
27858;DHT22;16852;51.446;6.528;2022-12-24T06:47:53;10.80;99.90
27858;DHT22;16852;51.446;6.528;2022-12-24T06:49:53;10.80;99.90
27858;DHT22;16852;51.446;6.528;2022-12-24T06:51:54;10.80;99.90
27858;DHT22;16852;51.446;6.528;2022-12-24T06:53:54;10.80;99.90
27858;DHT22;16852;51.446;6.528;2022-12-24T06:58:03;10.90;99.90
27858;DHT22;16852;51.446;6.528;2022-12-24T07:00:05;10.90;99.90
27858;DHT22;16852;51.446;6.528;2022-12-24T07:02:05;10.80;99.90
27858;DHT22;16852;51.446;6.528;2022-12-24T07:04:06;10.80;99.90
27858;DHT22;16852;51.446;6.528;2022-12-24T07:06:14;10.90;99.90
27858;DHT22;16852;51.446;6.528;2022-12-24T07:08:15;10.90;99.90
27858;DHT22;16852;51.446;6.528;2022-12-24T07:10:16;10.80;99.90
27858;DHT22;16852;51.446;6.528;2022-12-24T07:12:18;10.80;99.90
27858;DHT22;16852;51.446;6.528;2022-12-24T07:14:18;10.80;99.90
27858;DHT22;16852;51.446;6.528;2022-12-24T07:16:19;10.80;99.90
27858;DHT22;16852;51.446;6.528;2022-12-24T07:18:19;10.80;99.90
27858;DHT22;16852;51.446;6.528;2022-12-24T07:20:20;10.80;99.90
27858;DHT22;16852;51.446;6.528;2022-12-24T07:22:21;10.80;99.90
27858;DHT22;16852;51.446;6.528;2022-12-24T07:24:21;10.80;99.90
27858;DHT22;16852;51.446;6.528;2022-12-24T07:26:22;10.80;99.90
27858;DHT22;16852;51.446;6.528;2022-12-24T07:28:22;10.80;99.90
27858;DHT22;16852;51.446;6.528;2022-12-24T07:30:23;10.80;99.90
27858;DHT22;16852;51.446;6.528;2022-12-24T07:32:23;10.80;99.90
27858;DHT22;16852;51.446;6.528;2022-12-24T07:34:24;10.80;99.90
27858;DHT22;16852;51.446;6.528;2022-12-24T07:36:25;10.80;99.90
27858;DHT22;16852;51.446;6.528;2022-12-24T07:38:28;10.80;99.90
27858;DHT22;16852;51.446;6.528;2022-12-24T07:40:29;10.80;99.90
27858;DHT22;16852;51.446;6.528;2022-12-24T07:42:29;10.70;99.90
27858;DHT22;16852;51.446;6.528;2022-12-24T07:44:30;10.70;99.90
27858;DHT22;16852;51.446;6.528;2022-12-24T07:46:30;10.70;99.90
27858;DHT22;16852;51.446;6.528;2022-12-24T07:48:31;10.70;99.90
27858;DHT22;16852;51.446;6.528;2022-12-24T07:50:32;10.70;99.90
27858;DHT22;16852;51.446;6.528;2022-12-24T07:52:32;10.70;99.90
27858;DHT22;16852;51.446;6.528;2022-12-24T07:54:33;10.70;99.90
27858;DHT22;16852;51.446;6.528;2022-12-24T07:56:34;10.70;99.90
27858;DHT22;16852;51.446;6.528;2022-12-24T07:58:34;10.80;99.90
27858;DHT22;16852;51.446;6.528;2022-12-24T08:00:35;10.70;99.90
27858;DHT22;16852;51.446;6.528;2022-12-24T08:02:36;10.80;99.90
27858;DHT22;16852;51.446;6.528;2022-12-24T08:04:37;10.80;99.90
27858;DHT22;16852;51.446;6.528;2022-12-24T08:06:38;10.80;99.90
27858;DHT22;16852;51.446;6.528;2022-12-24T08:08:39;10.80;99.90
27858;DHT22;16852;51.446;6.528;2022-12-24T08:10:40;10.80;99.90
27858;DHT22;16852;51.446;6.528;2022-12-24T08:12:41;10.80;99.90
27858;DHT22;16852;51.446;6.528;2022-12-24T08:14:42;10.80;99.90
27858;DHT22;16852;51.446;6.528;2022-12-24T08:16:42;10.80;99.90
27858;DHT22;16852;51.446;6.528;2022-12-24T08:18:43;10.80;99.90
27858;DHT22;16852;51.446;6.528;2022-12-24T08:20:43;10.80;99.90
27858;DHT22;16852;51.446;6.528;2022-12-24T08:22:44;10.80;99.90
27858;DHT22;16852;51.446;6.528;2022-12-24T08:24:44;10.80;99.90
27858;DHT22;16852;51.446;6.528;2022-12-24T08:26:45;10.80;99.90
27858;DHT22;16852;51.446;6.528;2022-12-24T08:28:46;10.80;99.90
27858;DHT22;16852;51.446;6.528;2022-12-24T08:30:48;10.80;99.90
27858;DHT22;16852;51.446;6.528;2022-12-24T08:32:49;10.80;99.90
27858;DHT22;16852;51.446;6.528;2022-12-24T08:34:49;10.80;99.90
27858;DHT22;16852;51.446;6.528;2022-12-24T08:36:50;10.80;99.90
27858;DHT22;16852;51.446;6.528;2022-12-24T08:38:50;10.80;99.90
27858;DHT22;16852;51.446;6.528;2022-12-24T08:40:52;10.80;99.90
27858;DHT22;16852;51.446;6.528;2022-12-24T08:42:53;10.80;99.90
27858;DHT22;16852;51.446;6.528;2022-12-24T08:44:54;10.80;99.90
27858;DHT22;16852;51.446;6.528;2022-12-24T08:46:54;10.80;99.90
27858;DHT22;16852;51.446;6.528;2022-12-24T08:48:55;10.80;99.90
27858;DHT22;16852;51.446;6.528;2022-12-24T08:50:55;10.80;99.90
27858;DHT22;16852;51.446;6.528;2022-12-24T08:52:56;10.80;99.90
27858;DHT22;16852;51.446;6.528;2022-12-24T08:54:56;10.80;99.90
27858;DHT22;16852;51.446;6.528;2022-12-24T08:56:57;10.80;99.90
27858;DHT22;16852;51.446;6.528;2022-12-24T08:58:57;10.80;99.90
27858;DHT22;16852;51.446;6.528;2022-12-24T09:00:59;10.80;99.90
27858;DHT22;16852;51.446;6.528;2022-12-24T09:03:00;10.80;99.90
27858;DHT22;16852;51.446;6.528;2022-12-24T09:05:00;10.90;99.90
27858;DHT22;16852;51.446;6.528;2022-12-24T09:07:01;10.90;99.90
27858;DHT22;16852;51.446;6.528;2022-12-24T09:09:03;10.90;99.90
27858;DHT22;16852;51.446;6.528;2022-12-24T09:11:13;10.90;99.90
27858;DHT22;16852;51.446;6.528;2022-12-24T09:13:13;11.00;99.90
27858;DHT22;16852;51.446;6.528;2022-12-24T09:15:14;11.00;99.90
27858;DHT22;16852;51.446;6.528;2022-12-24T09:17:15;11.00;99.90
27858;DHT22;16852;51.446;6.528;2022-12-24T09:19:15;11.00;99.90
27858;DHT22;16852;51.446;6.528;2022-12-24T09:21:16;11.00;99.90
27858;DHT22;16852;51.446;6.528;2022-12-24T09:23:18;11.00;99.90
27858;DHT22;16852;51.446;6.528;2022-12-24T09:25:18;11.00;99.90
27858;DHT22;16852;51.446;6.528;2022-12-24T09:27:19;11.10;99.90
27858;DHT22;16852;51.446;6.528;2022-12-24T09:29:19;11.00;99.90
27858;DHT22;16852;51.446;6.528;2022-12-24T09:31:20;11.00;99.90
27858;DHT22;16852;51.446;6.528;2022-12-24T09:33:21;11.00;99.90
27858;DHT22;16852;51.446;6.528;2022-12-24T09:35:21;11.10;99.90
27858;DHT22;16852;51.446;6.528;2022-12-24T09:37:22;11.10;99.90
27858;DHT22;16852;51.446;6.528;2022-12-24T09:39:23;11.20;99.90
27858;DHT22;16852;51.446;6.528;2022-12-24T09:41:40;11.20;99.90
27858;DHT22;16852;51.446;6.528;2022-12-24T09:43:46;11.20;99.90
27858;DHT22;16852;51.446;6.528;2022-12-24T09:45:54;11.30;99.90
27858;DHT22;16852;51.446;6.528;2022-12-24T09:48:11;11.30;99.90
27858;DHT22;16852;51.446;6.528;2022-12-24T09:50:41;11.30;99.90
27858;DHT22;16852;51.446;6.528;2022-12-24T09:52:46;11.30;99.90
27858;DHT22;16852;51.446;6.528;2022-12-24T09:55:00;11.30;99.90
27858;DHT22;16852;51.446;6.528;2022-12-24T09:57:26;11.40;99.90
27858;DHT22;16852;51.446;6.528;2022-12-24T09:59:47;11.40;99.90
27858;DHT22;16852;51.446;6.528;2022-12-24T10:01:51;11.40;99.90
27858;DHT22;16852;51.446;6.528;2022-12-24T10:03:52;11.40;99.90
27858;DHT22;16852;51.446;6.528;2022-12-24T10:06:10;11.40;99.90
27858;DHT22;16852;51.446;6.528;2022-12-24T10:24:45;11.40;99.90
27858;DHT22;16852;51.446;6.528;2022-12-24T10:26:59;11.40;99.90
27858;DHT22;16852;51.446;6.528;2022-12-24T10:29:25;11.40;99.90
27858;DHT22;16852;51.446;6.528;2022-12-24T10:31:32;11.40;99.90
27858;DHT22;16852;51.446;6.528;2022-12-24T10:33:41;11.50;99.90
27858;DHT22;16852;51.446;6.528;2022-12-24T10:35:46;11.50;99.90
27858;DHT22;16852;51.446;6.528;2022-12-24T10:37:49;11.50;99.90
27858;DHT22;16852;51.446;6.528;2022-12-24T10:39:51;11.60;99.90
27858;DHT22;16852;51.446;6.528;2022-12-24T10:41:54;11.60;99.90
27858;DHT22;16852;51.446;6.528;2022-12-24T10:43:58;11.60;99.90
27858;DHT22;16852;51.446;6.528;2022-12-24T10:46:02;11.60;99.90
27858;DHT22;16852;51.446;6.528;2022-12-24T10:48:06;11.70;99.90
27858;DHT22;16852;51.446;6.528;2022-12-24T10:50:19;11.70;99.90
27858;DHT22;16852;51.446;6.528;2022-12-24T10:52:33;11.70;99.90
27858;DHT22;16852;51.446;6.528;2022-12-24T10:54:35;11.70;99.90
27858;DHT22;16852;51.446;6.528;2022-12-24T10:56:49;11.80;99.90
27858;DHT22;16852;51.446;6.528;2022-12-24T10:58:53;11.80;99.90
27858;DHT22;16852;51.446;6.528;2022-12-24T11:00:54;11.80;99.90
27858;DHT22;16852;51.446;6.528;2022-12-24T11:03:33;11.80;99.90
27858;DHT22;16852;51.446;6.528;2022-12-24T11:05:36;11.80;99.90
27858;DHT22;16852;51.446;6.528;2022-12-24T11:07:36;11.80;99.90
27858;DHT22;16852;51.446;6.528;2022-12-24T11:09:39;11.80;99.90
27858;DHT22;16852;51.446;6.528;2022-12-24T11:11:42;11.80;99.90
27858;DHT22;16852;51.446;6.528;2022-12-24T11:13:43;11.80;99.90
27858;DHT22;16852;51.446;6.528;2022-12-24T11:15:45;11.80;99.90
27858;DHT22;16852;51.446;6.528;2022-12-24T11:18:01;11.80;99.90
27858;DHT22;16852;51.446;6.528;2022-12-24T11:20:04;11.80;99.90
27858;DHT22;16852;51.446;6.528;2022-12-24T11:22:23;11.80;99.90
27858;DHT22;16852;51.446;6.528;2022-12-24T11:24:27;11.80;99.90
27858;DHT22;16852;51.446;6.528;2022-12-24T11:26:30;11.80;99.90
27858;DHT22;16852;51.446;6.528;2022-12-24T11:28:31;11.90;99.90
27858;DHT22;16852;51.446;6.528;2022-12-24T11:30:37;11.90;99.90
27858;DHT22;16852;51.446;6.528;2022-12-24T11:32:37;11.90;99.90
27858;DHT22;16852;51.446;6.528;2022-12-24T11:34:42;11.90;99.90
27858;DHT22;16852;51.446;6.528;2022-12-24T11:36:43;11.90;99.90
27858;DHT22;16852;51.446;6.528;2022-12-24T11:38:52;11.90;99.90
27858;DHT22;16852;51.446;6.528;2022-12-24T11:41:05;11.90;99.90
27858;DHT22;16852;51.446;6.528;2022-12-24T11:43:19;11.90;99.90
27858;DHT22;16852;51.446;6.528;2022-12-24T11:45:26;11.90;99.90
27858;DHT22;16852;51.446;6.528;2022-12-24T11:47:38;11.90;99.90
27858;DHT22;16852;51.446;6.528;2022-12-24T11:49:42;11.90;99.90
27858;DHT22;16852;51.446;6.528;2022-12-24T11:54:25;11.80;99.90
27858;DHT22;16852;51.446;6.528;2022-12-24T11:56:42;11.80;99.90
27858;DHT22;16852;51.446;6.528;2022-12-24T11:58:48;11.80;99.90
27858;DHT22;16852;51.446;6.528;2022-12-24T12:01:02;11.80;99.90
27858;DHT22;16852;51.446;6.528;2022-12-24T12:03:20;11.80;99.90
27858;DHT22;16852;51.446;6.528;2022-12-24T12:05:31;11.80;99.90
27858;DHT22;16852;51.446;6.528;2022-12-24T12:07:34;11.80;99.90
27858;DHT22;16852;51.446;6.528;2022-12-24T12:09:46;11.80;99.90
27858;DHT22;16852;51.446;6.528;2022-12-24T12:12:04;11.90;99.90
27858;DHT22;16852;51.446;6.528;2022-12-24T12:14:09;11.90;99.90
27858;DHT22;16852;51.446;6.528;2022-12-24T12:16:48;11.90;99.90
27858;DHT22;16852;51.446;6.528;2022-12-24T12:19:03;11.80;99.90
27858;DHT22;16852;51.446;6.528;2022-12-24T12:21:10;11.80;99.90
27858;DHT22;16852;51.446;6.528;2022-12-24T12:23:31;11.80;99.90
27858;DHT22;16852;51.446;6.528;2022-12-24T12:25:52;11.80;99.90
27858;DHT22;16852;51.446;6.528;2022-12-24T12:27:55;11.80;99.90
27858;DHT22;16852;51.446;6.528;2022-12-24T12:30:02;11.90;99.90
27858;DHT22;16852;51.446;6.528;2022-12-24T12:32:06;11.90;99.90
27858;DHT22;16852;51.446;6.528;2022-12-24T12:36:23;11.90;99.90
27858;DHT22;16852;51.446;6.528;2022-12-24T12:38:26;11.90;99.90
27858;DHT22;16852;51.446;6.528;2022-12-24T12:40:44;11.80;99.90
27858;DHT22;16852;51.446;6.528;2022-12-24T12:42:56;11.90;99.90
27858;DHT22;16852;51.446;6.528;2022-12-24T12:45:02;11.90;99.90
27858;DHT22;16852;51.446;6.528;2022-12-24T12:49:51;11.90;99.90
27858;DHT22;16852;51.446;6.528;2022-12-24T12:56:29;11.90;99.90
27858;DHT22;16852;51.446;6.528;2022-12-24T12:58:40;11.90;99.90
27858;DHT22;16852;51.446;6.528;2022-12-24T13:00:44;12.00;99.90
27858;DHT22;16852;51.446;6.528;2022-12-24T13:05:53;12.00;99.90
27858;DHT22;16852;51.446;6.528;2022-12-24T13:10:50;12.10;99.90
27858;DHT22;16852;51.446;6.528;2022-12-24T13:20:19;12.10;99.90
27858;DHT22;16852;51.446;6.528;2022-12-24T13:22:21;12.10;99.90
27858;DHT22;16852;51.446;6.528;2022-12-24T13:24:27;12.10;99.90
27858;DHT22;16852;51.446;6.528;2022-12-24T13:26:30;12.10;99.90
27858;DHT22;16852;51.446;6.528;2022-12-24T13:28:32;12.10;99.90
27858;DHT22;16852;51.446;6.528;2022-12-24T13:30:42;12.10;99.90
27858;DHT22;16852;51.446;6.528;2022-12-24T13:32:50;12.20;99.90
27858;DHT22;16852;51.446;6.528;2022-12-24T13:34:55;12.20;99.90
27858;DHT22;16852;51.446;6.528;2022-12-24T13:37:01;12.20;99.90
27858;DHT22;16852;51.446;6.528;2022-12-24T13:39:03;12.20;99.90
27858;DHT22;16852;51.446;6.528;2022-12-24T13:44:15;12.20;99.90
27858;DHT22;16852;51.446;6.528;2022-12-24T13:49:19;12.20;99.90
27858;DHT22;16852;51.446;6.528;2022-12-24T13:51:24;12.10;99.90
27858;DHT22;16852;51.446;6.528;2022-12-24T13:53:42;12.10;99.90
27858;DHT22;16852;51.446;6.528;2022-12-24T13:58:17;12.10;99.90
27858;DHT22;16852;51.446;6.528;2022-12-24T14:02:20;12.10;99.90
27858;DHT22;16852;51.446;6.528;2022-12-24T14:04:28;12.10;99.90
27858;DHT22;16852;51.446;6.528;2022-12-24T14:06:36;12.10;99.90
27858;DHT22;16852;51.446;6.528;2022-12-24T14:08:42;12.10;99.90
27858;DHT22;16852;51.446;6.528;2022-12-24T14:17:48;12.00;99.90
27858;DHT22;16852;51.446;6.528;2022-12-24T14:19:54;12.00;99.90